createdAt,value
2023-04-21T00:00:46.017Z,81.61
2023-04-21T00:01:48.002Z,81.31
2023-04-21T00:02:51.599Z,81.07
2023-04-21T00:03:53.875Z,80.85
2023-04-21T00:04:56.253Z,80.74
2023-04-21T00:06:00.771Z,80.64
2023-04-21T00:07:02.719Z,80.45
2023-04-21T00:08:04.577Z,80.25
2023-04-21T00:09:07.882Z,79.98
2023-04-21T00:10:11.090Z,80.14
2023-04-21T00:11:12.999Z,80.59
2023-04-21T00:12:15.035Z,80.53
2023-04-21T00:13:16.870Z,80.44
2023-04-21T00:14:19.069Z,80.40
2023-04-21T00:15:20.917Z,80.40
2023-04-21T00:16:23.049Z,80.29
2023-04-21T00:17:25.974Z,80.11
2023-04-21T00:18:29.061Z,79.88
2023-04-21T00:19:31.151Z,79.82
2023-04-21T00:20:33.408Z,80.02
2023-04-21T00:21:35.904Z,80.21
2023-04-21T00:22:37.788Z,79.69
2023-04-21T00:23:39.641Z,79.92
2023-04-21T00:24:41.646Z,79.84
2023-04-21T00:25:43.519Z,79.89
2023-04-21T00:26:45.443Z,79.92
2023-04-21T00:27:48.306Z,79.97
2023-04-21T00:28:50.269Z,79.89
2023-04-21T00:29:52.146Z,79.98
2023-04-21T00:30:54.201Z,80.05
2023-04-21T00:31:56.308Z,79.89
2023-04-21T00:32:58.553Z,79.99
2023-04-21T00:34:00.574Z,80.06
2023-04-21T00:35:03.938Z,80.12
2023-04-21T00:36:06.348Z,80.32
2023-04-21T00:37:08.258Z,80.16
2023-04-21T00:38:10.413Z,79.76
2023-04-21T00:39:13.471Z,79.83
2023-04-21T00:40:15.788Z,80.32
2023-04-21T00:41:17.876Z,80.41
2023-04-21T00:42:19.888Z,80.50
2023-04-21T00:43:21.907Z,80.56
2023-04-21T00:44:23.863Z,80.56
2023-04-21T00:45:26.168Z,81.35
2023-04-21T00:46:28.957Z,80.84
2023-04-21T00:47:31.409Z,80.76
2023-04-21T00:48:33.568Z,81.26
2023-04-21T00:49:36.084Z,81.12
2023-04-21T00:50:38.684Z,81.04
2023-04-21T00:51:40.856Z,80.90
2023-04-21T00:52:44.050Z,80.83
2023-04-21T00:53:46.859Z,80.88
2023-04-21T00:54:49.421Z,80.68
2023-04-21T00:55:54.264Z,80.51
2023-04-21T00:56:56.693Z,80.45
2023-04-21T00:57:59.590Z,80.37
2023-04-21T00:59:02.383Z,80.17
2023-04-21T01:00:05.863Z,79.85
2023-04-21T01:01:08.075Z,79.90
2023-04-21T01:02:10.701Z,79.92
2023-04-21T01:03:13.386Z,80.15
2023-04-21T01:04:15.451Z,81.23
2023-04-21T01:05:17.519Z,80.86
2023-04-21T01:06:19.800Z,80.96
2023-04-21T01:07:21.862Z,81.20
2023-04-21T01:08:23.721Z,81.10
2023-04-21T01:09:26.647Z,81.96
2023-04-21T01:10:31.754Z,81.29
2023-04-21T01:11:33.719Z,81.21
2023-04-21T01:12:42.905Z,81.58
2023-04-21T01:13:44.868Z,81.18
2023-04-21T01:14:46.716Z,81.71
2023-04-21T01:15:49.058Z,81.70
2023-04-21T01:16:51.133Z,81.69
2023-04-21T01:17:53.197Z,80.76
2023-04-21T01:18:55.387Z,80.88
2023-04-21T01:20:00.220Z,80.72
2023-04-21T01:21:03.471Z,81.70
2023-04-21T01:22:10.083Z,81.98
2023-04-21T01:23:11.965Z,81.40
2023-04-21T01:24:14.105Z,81.23
2023-04-21T01:25:15.973Z,81.67
2023-04-21T01:27:29.671Z,81.74
2023-04-21T01:28:31.546Z,82.22
2023-04-21T01:29:33.885Z,81.56
2023-04-21T01:30:36.047Z,81.53
2023-04-21T01:31:38.035Z,81.32
2023-04-21T01:32:40.132Z,80.91
2023-04-21T01:33:42.069Z,81.51
2023-04-21T01:34:44.601Z,81.13
2023-04-21T01:35:48.322Z,81.43
2023-04-21T01:36:50.562Z,81.95
2023-04-21T01:37:52.419Z,81.40
2023-04-21T01:38:54.289Z,81.58
2023-04-21T01:39:59.345Z,81.92
2023-04-21T01:41:01.460Z,82.52
2023-04-21T01:42:05.888Z,81.76
2023-04-21T01:43:08.998Z,82.35
2023-04-21T01:44:13.935Z,82.56
2023-04-21T01:45:15.906Z,82.08
2023-04-21T01:46:19.910Z,82.18
2023-04-21T01:47:23.488Z,82.72
2023-04-21T01:48:25.490Z,82.36
2023-04-21T01:49:27.393Z,82.34
2023-04-21T01:50:29.660Z,82.63
2023-04-21T01:51:31.527Z,83.52
2023-04-21T01:52:33.609Z,82.71
2023-04-21T01:53:35.428Z,82.38
2023-04-21T01:54:38.794Z,83.25
2023-04-21T01:55:40.948Z,83.59
2023-04-21T01:56:44.098Z,83.89
2023-04-21T01:57:46.076Z,83.00
2023-04-21T01:58:47.935Z,82.91
2023-04-21T01:59:49.971Z,83.28
2023-04-21T02:00:51.932Z,84.19
2023-04-21T02:01:53.956Z,84.05
2023-04-21T02:02:57.202Z,83.65
2023-04-21T02:03:59.751Z,83.77
2023-04-21T02:05:02.121Z,84.28
2023-04-21T02:06:05.880Z,83.58
2023-04-21T02:07:07.865Z,83.27
2023-04-21T02:08:09.718Z,83.56
2023-04-21T02:09:11.841Z,84.16
2023-04-21T02:10:16.122Z,84.05
2023-04-21T02:11:18.102Z,84.31
2023-04-21T02:12:20.051Z,84.36
2023-04-21T02:13:21.930Z,84.42
2023-04-21T02:14:24.994Z,84.56
2023-04-21T02:15:27.151Z,84.72
2023-04-21T02:16:32.540Z,84.85
2023-04-21T02:17:35.177Z,85.09
2023-04-21T02:18:37.358Z,85.03
2023-04-21T02:19:39.988Z,84.51
2023-04-21T02:20:42.072Z,84.89
2023-04-21T02:21:44.009Z,84.82
2023-04-21T02:22:45.857Z,84.28
2023-04-21T02:23:48.272Z,84.44
2023-04-21T02:24:50.147Z,84.42
2023-04-21T02:25:52.010Z,84.25
2023-04-21T02:26:54.088Z,83.81
2023-04-21T02:27:57.019Z,84.12
2023-04-21T02:28:59.257Z,84.44
2023-04-21T02:30:01.317Z,84.94
2023-04-21T02:31:03.826Z,84.95
2023-04-21T02:33:09.737Z,85.67
2023-04-21T02:34:11.951Z,85.04
2023-04-21T02:35:13.824Z,84.72
2023-04-21T02:36:17.271Z,85.70
2023-04-21T02:37:20.251Z,86.08
2023-04-21T02:38:22.216Z,86.02
2023-04-21T02:39:24.683Z,86.40
2023-04-21T02:40:26.661Z,85.98
2023-04-21T02:41:29.787Z,86.47
2023-04-21T02:42:34.586Z,86.55
2023-04-21T02:43:37.704Z,87.29
2023-04-21T02:44:39.715Z,87.42
2023-04-21T02:45:43.256Z,87.67
2023-04-21T02:46:45.447Z,87.87
2023-04-21T02:47:47.404Z,87.68
2023-04-21T02:48:49.481Z,87.85
2023-04-21T02:49:51.462Z,87.98
2023-04-21T02:50:54.647Z,88.09
2023-04-21T02:51:57.507Z,87.66
2023-04-21T02:52:59.420Z,88.14
2023-04-21T02:54:01.301Z,88.23
2023-04-21T02:55:03.574Z,87.98
2023-04-21T02:56:07.370Z,88.08
2023-04-21T02:57:09.232Z,87.80
2023-04-21T02:58:11.372Z,87.83
2023-04-21T02:59:13.438Z,87.89
2023-04-21T03:00:15.850Z,87.82
2023-04-21T03:01:17.859Z,87.85
2023-04-21T03:02:20.246Z,87.87
2023-04-21T03:03:24.636Z,87.57
2023-04-21T03:04:27.009Z,87.97
2023-04-21T03:05:31.437Z,88.20
2023-04-21T03:06:33.821Z,87.76
2023-04-21T03:07:35.780Z,88.15
2023-04-21T03:08:37.856Z,88.26
2023-04-21T03:09:40.693Z,88.18
2023-04-21T03:10:42.733Z,88.13
2023-04-21T03:11:44.619Z,88.04
2023-04-21T03:12:46.567Z,88.20
2023-04-21T03:13:48.523Z,88.49
2023-04-21T03:14:51.722Z,88.37
2023-04-21T03:15:54.209Z,88.71
2023-04-21T03:16:56.285Z,88.95
2023-04-21T03:17:58.594Z,88.82
2023-04-21T03:19:00.692Z,89.02
2023-04-21T03:20:03.042Z,88.63
2023-04-21T03:21:06.318Z,88.48
2023-04-21T03:22:09.620Z,88.62
2023-04-21T03:23:13.811Z,88.48
2023-04-21T03:24:15.904Z,87.98
2023-04-21T03:25:17.912Z,87.82
2023-04-21T03:26:19.873Z,88.22
2023-04-21T03:27:21.700Z,88.10
2023-04-21T03:28:23.873Z,87.92
2023-04-21T03:29:25.952Z,87.92
2023-04-21T03:30:28.301Z,88.05
2023-04-21T03:31:30.214Z,87.72
2023-04-21T03:32:32.282Z,87.81
2023-04-21T03:33:35.110Z,88.24
2023-04-21T03:34:37.026Z,88.13
2023-04-21T03:35:38.892Z,88.79
2023-04-21T03:36:40.851Z,88.06
2023-04-21T03:37:42.700Z,87.88
2023-04-21T03:38:44.569Z,87.86
2023-04-21T03:39:46.447Z,87.80
2023-04-21T03:40:48.949Z,87.70
2023-04-21T03:41:51.195Z,87.80
2023-04-21T03:42:53.111Z,88.12
2023-04-21T03:43:54.994Z,88.44
2023-04-21T03:45:03.742Z,88.37
2023-04-21T03:46:06.331Z,88.55
2023-04-21T03:47:08.397Z,88.19
2023-04-21T03:48:10.390Z,87.83
2023-04-21T03:49:12.306Z,88.06
2023-04-21T03:50:16.624Z,88.24
2023-04-21T03:51:18.492Z,88.43
2023-04-21T03:52:20.344Z,88.35
2023-04-21T03:53:23.321Z,88.59
2023-04-21T03:54:25.417Z,88.36
2023-04-21T03:55:27.334Z,88.63
2023-04-21T03:56:29.443Z,88.76
2023-04-21T03:57:31.413Z,88.36
2023-04-21T03:58:33.681Z,88.33
2023-04-21T03:59:36.680Z,88.93
2023-04-21T04:00:38.960Z,88.67
2023-04-21T04:01:41.231Z,88.47
2023-04-21T04:02:43.243Z,88.84
2023-04-21T04:03:45.375Z,88.78
2023-04-21T04:04:47.618Z,88.80
2023-04-21T04:05:49.728Z,88.59
2023-04-21T04:06:51.704Z,88.87
2023-04-21T04:07:53.567Z,88.53
2023-04-21T04:08:55.524Z,87.96
2023-04-21T04:09:57.409Z,88.01
2023-04-21T04:10:59.494Z,88.63
2023-04-21T04:12:01.356Z,88.73
2023-04-21T04:13:03.294Z,88.75
2023-04-21T04:14:05.174Z,88.51
2023-04-21T04:15:08.194Z,88.62
2023-04-21T04:16:10.634Z,88.55
2023-04-21T04:17:14.822Z,88.80
2023-04-21T04:18:16.740Z,88.92
2023-04-21T04:19:18.890Z,88.95
2023-04-21T04:20:24.060Z,88.90
2023-04-21T04:21:26.754Z,88.45
2023-04-21T04:22:28.613Z,88.15
2023-04-21T04:23:30.480Z,88.14
2023-04-21T04:24:33.375Z,88.14
2023-04-21T04:25:35.256Z,88.66
2023-04-21T04:26:37.207Z,88.42
2023-04-21T04:27:39.024Z,88.21
2023-04-21T04:28:40.932Z,87.73
2023-04-21T04:29:42.808Z,87.40
2023-04-21T04:30:44.874Z,86.94
2023-04-21T04:31:46.802Z,86.67
2023-04-21T04:32:48.926Z,86.22
2023-04-21T04:33:55.550Z,86.32
2023-04-21T04:34:57.765Z,85.93
2023-04-21T04:35:59.953Z,85.76
2023-04-21T04:37:02.241Z,85.44
2023-04-21T04:38:04.344Z,85.53
2023-04-21T04:39:08.312Z,84.72
2023-04-21T04:40:11.396Z,84.83
2023-04-21T04:41:13.306Z,84.13
2023-04-21T04:42:15.166Z,83.88
2023-04-21T04:43:17.142Z,83.59
2023-04-21T04:44:19.660Z,83.31
2023-04-21T04:45:21.766Z,83.40
2023-04-21T04:46:23.860Z,82.88
2023-04-21T04:47:25.856Z,82.71
2023-04-21T04:48:28.726Z,82.54
2023-04-21T04:49:30.595Z,82.51
2023-04-21T04:50:32.739Z,83.07
2023-04-21T04:51:34.849Z,82.63
2023-04-21T04:52:37.992Z,82.38
2023-04-21T04:53:40.017Z,82.23
2023-04-21T04:54:42.184Z,82.42
2023-04-21T04:55:44.049Z,81.66
2023-04-21T04:56:46.084Z,82.35
2023-04-21T04:57:48.002Z,82.16
2023-04-21T04:58:50.491Z,82.90
2023-04-21T04:59:56.080Z,82.64
2023-04-21T05:00:58.310Z,82.21
2023-04-21T05:02:00.263Z,81.58
2023-04-21T05:03:02.673Z,81.17
2023-04-21T05:04:05.056Z,81.64
2023-04-21T05:05:08.330Z,81.75
2023-04-21T05:06:10.769Z,82.20
2023-04-21T05:07:12.922Z,81.33
2023-04-21T05:08:18.133Z,81.09
2023-04-21T05:09:22.246Z,81.02
2023-04-21T05:10:24.262Z,80.67
2023-04-21T05:11:26.840Z,80.92
2023-04-21T05:12:30.495Z,80.35
2023-04-21T05:13:32.416Z,80.13
2023-04-21T05:14:36.620Z,80.09
2023-04-21T05:15:38.520Z,80.08
2023-04-21T05:16:43.017Z,80.11
2023-04-21T05:17:45.285Z,80.40
2023-04-21T05:18:47.328Z,80.24
2023-04-21T05:19:49.171Z,80.47
2023-04-21T05:20:51.276Z,80.51
2023-04-21T05:21:58.506Z,80.67
2023-04-21T05:23:00.426Z,80.16
2023-04-21T05:24:03.605Z,80.01
2023-04-21T05:25:07.992Z,79.82
2023-04-21T05:26:10.459Z,80.07
2023-04-21T05:27:12.490Z,80.09
2023-04-21T05:28:14.486Z,79.96
2023-04-21T05:29:16.418Z,79.60
2023-04-21T05:30:18.845Z,79.49
2023-04-21T05:31:22.885Z,79.57
2023-04-21T05:32:25.281Z,79.14
2023-04-21T05:33:27.273Z,79.06
2023-04-21T05:34:30.847Z,78.74
2023-04-21T05:35:34.195Z,78.77
2023-04-21T05:36:39.907Z,78.14
2023-04-21T05:37:41.796Z,78.30
2023-04-21T05:38:43.752Z,77.49
2023-04-21T05:39:46.085Z,77.52
2023-04-21T05:40:54.855Z,77.37
2023-04-21T05:41:56.917Z,76.74
2023-04-21T05:42:58.902Z,76.52
2023-04-21T05:44:01.269Z,76.82
2023-04-21T05:45:04.804Z,77.78
2023-04-21T05:46:10.262Z,77.70
2023-04-21T05:47:12.751Z,77.42
2023-04-21T05:48:14.650Z,76.99
2023-04-21T05:49:16.574Z,76.47
2023-04-21T05:50:18.852Z,75.99
2023-04-21T05:51:21.910Z,75.79
2023-04-21T05:52:23.867Z,75.31
2023-04-21T05:53:25.891Z,75.25
2023-04-21T05:54:27.982Z,74.24
2023-04-21T05:55:29.964Z,74.13
2023-04-21T05:56:32.017Z,74.23
2023-04-21T05:57:33.860Z,73.92
2023-04-21T05:58:36.449Z,74.30
2023-04-21T05:59:38.623Z,74.11
2023-04-21T06:00:40.760Z,73.70
2023-04-21T06:01:44.324Z,74.08
2023-04-21T06:02:46.423Z,74.29
2023-04-21T06:03:49.451Z,74.58
2023-04-21T06:04:51.782Z,74.51
2023-04-21T06:05:55.095Z,74.75
2023-04-21T06:06:57.557Z,74.12
2023-04-21T06:07:59.535Z,73.84
2023-04-21T06:09:01.393Z,74.23
2023-04-21T06:10:04.468Z,74.61
2023-04-21T06:11:06.642Z,74.42
2023-04-21T06:12:08.628Z,74.33
2023-04-21T06:13:10.584Z,74.23
2023-04-21T06:14:12.437Z,74.55
2023-04-21T06:15:14.337Z,74.40
2023-04-21T06:16:16.330Z,75.22
2023-04-21T06:17:19.505Z,75.27
2023-04-21T06:18:21.952Z,75.32
2023-04-21T06:19:24.051Z,76.05
2023-04-21T06:20:26.038Z,75.10
2023-04-21T06:21:27.937Z,74.81
2023-04-21T06:22:29.891Z,75.30
2023-04-21T06:23:31.932Z,75.13
2023-04-21T06:24:33.903Z,75.34
2023-04-21T06:25:35.901Z,75.03
2023-04-21T06:26:38.059Z,74.87
2023-04-21T06:27:39.934Z,74.88
2023-04-21T06:28:41.893Z,74.94
2023-04-21T06:29:44.264Z,74.44
2023-04-21T06:30:46.347Z,73.89
2023-04-21T06:31:48.413Z,73.60
2023-04-21T06:32:50.465Z,74.20
2023-04-21T06:33:52.486Z,74.41
2023-04-21T06:34:54.352Z,73.97
2023-04-21T06:35:57.622Z,74.15
2023-04-21T06:36:59.710Z,73.57
2023-04-21T06:38:01.577Z,73.32
2023-04-21T06:39:03.561Z,73.31
2023-04-21T06:40:07.543Z,73.21
2023-04-21T06:41:09.631Z,73.47
2023-04-21T06:42:11.518Z,72.82
2023-04-21T06:43:13.490Z,72.71
2023-04-21T06:44:15.370Z,72.58
2023-04-21T06:45:19.089Z,71.97
2023-04-21T06:46:21.358Z,72.10
2023-04-21T06:47:23.492Z,71.94
2023-04-21T06:48:25.713Z,70.53
2023-04-21T06:49:27.573Z,70.11
2023-04-21T06:50:29.952Z,70.08
2023-04-21T06:51:32.081Z,69.76
2023-04-21T06:52:33.945Z,69.55
2023-04-21T06:53:35.806Z,69.47
2023-04-21T06:54:37.648Z,69.35
2023-04-21T06:55:39.503Z,69.45
2023-04-21T06:56:41.488Z,68.50
2023-04-21T06:57:44.254Z,68.28
2023-04-21T06:58:49.031Z,68.36
2023-04-21T06:59:51.747Z,68.79
2023-04-21T07:00:53.876Z,68.66
2023-04-21T07:01:56.133Z,68.10
2023-04-21T07:02:58.417Z,66.78
2023-04-21T07:04:00.733Z,66.01
2023-04-21T07:05:03.324Z,65.16
2023-04-21T07:06:05.668Z,65.25
2023-04-21T07:07:07.688Z,65.88
2023-04-21T07:08:10.260Z,66.34
2023-04-21T07:09:12.352Z,65.63
2023-04-21T07:10:14.637Z,65.33
2023-04-21T07:11:17.746Z,64.75
2023-04-21T07:12:19.600Z,64.71
2023-04-21T07:13:21.553Z,64.94
2023-04-21T07:14:24.308Z,65.50
2023-04-21T07:15:26.422Z,65.56
2023-04-21T07:16:32.136Z,65.63
2023-04-21T07:17:35.465Z,65.78
2023-04-21T07:18:39.407Z,65.30
2023-04-21T07:19:41.346Z,65.71
2023-04-21T07:20:44.332Z,65.48
2023-04-21T07:21:46.323Z,64.92
2023-04-21T07:22:48.283Z,65.27
2023-04-21T07:23:50.252Z,65.28
2023-04-21T07:24:52.147Z,65.18
2023-04-21T07:25:54.387Z,64.85
2023-04-21T07:26:56.375Z,64.01
2023-04-21T07:27:58.396Z,63.90
2023-04-21T07:29:00.432Z,64.20
2023-04-21T07:30:06.557Z,63.84
2023-04-21T07:31:08.614Z,63.52
2023-04-21T07:32:10.766Z,63.10
2023-04-21T07:33:13.511Z,62.50
2023-04-21T07:34:15.550Z,61.79
2023-04-21T07:35:17.826Z,61.70
2023-04-21T07:36:21.096Z,60.39
2023-04-21T07:37:24.907Z,59.88
2023-04-21T07:38:27.127Z,60.13
2023-04-21T07:39:28.991Z,60.13
2023-04-21T07:40:31.267Z,59.11
2023-04-21T07:41:33.382Z,58.52
2023-04-21T07:42:35.488Z,58.80
2023-04-21T07:43:38.746Z,57.94
2023-04-21T07:44:42.649Z,57.94
2023-04-21T07:45:49.080Z,57.65
2023-04-21T07:46:51.266Z,57.84
2023-04-21T07:47:53.221Z,58.48
2023-04-21T07:48:57.308Z,58.91
2023-04-21T07:49:59.433Z,59.34
2023-04-21T07:51:01.545Z,59.56
2023-04-21T07:52:04.630Z,59.54
2023-04-21T07:53:06.483Z,59.49
2023-04-21T07:54:08.370Z,59.37
2023-04-21T07:55:10.234Z,59.90
2023-04-21T07:56:12.812Z,59.49
2023-04-21T07:57:14.769Z,59.08
2023-04-21T07:58:16.949Z,59.03
2023-04-21T07:59:19.221Z,58.70
2023-04-21T08:00:21.585Z,59.04
2023-04-21T08:01:23.667Z,58.96
2023-04-21T08:02:26.780Z,58.86
2023-04-21T08:03:29.215Z,59.25
2023-04-21T08:04:31.451Z,59.60
2023-04-21T08:05:36.674Z,59.68
2023-04-21T08:06:38.924Z,59.46
2023-04-21T08:07:40.872Z,58.78
2023-04-21T08:08:42.910Z,58.64
2023-04-21T08:09:44.959Z,59.28
2023-04-21T08:10:47.942Z,59.43
2023-04-21T08:11:51.846Z,59.66
2023-04-21T08:12:54.083Z,59.70
2023-04-21T08:13:56.190Z,59.48
2023-04-21T08:14:58.311Z,59.28
2023-04-21T08:16:00.224Z,59.12
2023-04-21T08:17:02.289Z,58.76
2023-04-21T08:18:04.612Z,59.01
2023-04-21T08:19:07.966Z,58.94
2023-04-21T08:20:11.357Z,58.75
2023-04-21T08:21:13.243Z,58.34
2023-04-21T08:22:15.512Z,58.33
2023-04-21T08:23:19.465Z,58.27
2023-04-21T08:24:22.277Z,57.92
2023-04-21T08:25:24.873Z,57.87
2023-04-21T08:26:27.787Z,57.86
2023-04-21T08:27:29.797Z,58.43
2023-04-21T08:28:31.669Z,58.70
2023-04-21T08:29:33.632Z,58.86
2023-04-21T08:30:35.825Z,59.21
2023-04-21T08:31:38.717Z,59.30
2023-04-21T08:32:40.785Z,59.62
2023-04-21T08:33:57.903Z,59.50
2023-04-21T08:34:49.064Z,59.14
2023-04-21T08:36:02.320Z,59.13
2023-04-21T08:36:54.942Z,59.34
2023-04-21T08:37:56.839Z,59.70
2023-04-21T08:38:59.239Z,60.08
2023-04-21T08:40:01.715Z,60.29
2023-04-21T08:41:06.706Z,60.34
2023-04-21T08:42:09.142Z,59.99
2023-04-21T08:43:11.578Z,59.78
2023-04-21T08:44:13.535Z,59.93
2023-04-21T08:45:15.786Z,59.66
2023-04-21T08:46:18.994Z,60.60
2023-04-21T08:47:24.397Z,60.88
2023-04-21T08:48:29.092Z,60.25
2023-04-21T08:49:33.632Z,60.62
2023-04-21T08:50:38.184Z,60.91
2023-04-21T08:51:40.464Z,61.36
2023-04-21T08:52:42.359Z,61.46
2023-04-21T08:53:44.228Z,61.70
2023-04-21T08:54:46.720Z,61.67
2023-04-21T08:56:03.169Z,62.13
2023-04-21T08:57:04.557Z,62.84
2023-04-21T08:58:05.569Z,62.78
2023-04-21T08:59:07.544Z,62.37
2023-04-21T09:00:11.664Z,62.26
2023-04-21T09:01:13.795Z,61.53
2023-04-21T09:02:21.473Z,61.54
2023-04-21T09:03:26.401Z,61.57
2023-04-21T09:04:30.761Z,61.43
2023-04-21T09:05:34.575Z,61.44
2023-04-21T09:06:40.877Z,61.33
2023-04-21T09:07:42.951Z,61.37
2023-04-21T09:08:53.636Z,61.68
2023-04-21T09:09:57.477Z,62.34
2023-04-21T09:11:02.688Z,62.57
2023-04-21T09:12:06.483Z,63.01
2023-04-21T09:13:09.663Z,63.05
2023-04-21T09:14:11.609Z,63.22
2023-04-21T09:15:14.704Z,63.33
2023-04-21T09:16:21.151Z,64.04
2023-04-21T09:17:31.101Z,64.25
2023-04-21T09:18:33.169Z,64.91
2023-04-21T09:19:35.825Z,65.26
2023-04-21T09:20:37.904Z,64.86
2023-04-21T09:21:43.493Z,64.76
2023-04-21T09:22:49.302Z,65.27
2023-04-21T09:23:53.159Z,65.43
2023-04-21T09:24:58.722Z,65.49
2023-04-21T09:26:02.753Z,65.13
2023-04-21T09:27:05.907Z,64.93
2023-04-21T09:28:09.378Z,64.54
2023-04-21T09:29:11.389Z,64.12
2023-04-21T09:30:20.157Z,64.22
2023-04-21T09:31:25.300Z,63.47
2023-04-21T09:32:27.609Z,63.38
2023-04-21T09:33:45.637Z,63.17
2023-04-21T09:34:41.806Z,62.23
2023-04-21T09:35:43.738Z,63.11
2023-04-21T09:36:49.366Z,63.19
2023-04-21T09:37:51.393Z,63.84
2023-04-21T09:39:15.448Z,64.13
2023-04-21T09:41:07.454Z,64.88
2023-04-21T09:42:10.592Z,65.49
2023-04-21T09:43:12.466Z,65.28
2023-04-21T09:44:15.214Z,65.08
2023-04-21T09:45:36.666Z,64.87
2023-04-21T09:46:23.191Z,64.81
2023-04-21T09:47:28.581Z,64.90
2023-04-21T09:48:33.328Z,65.23
2023-04-21T09:49:37.982Z,65.53
2023-04-21T09:51:20.857Z,66.18
2023-04-21T09:54:13.032Z,66.64
2023-04-21T09:55:12.177Z,66.56
2023-04-21T09:56:17.884Z,66.24
2023-04-21T09:57:25.356Z,66.13
2023-04-21T09:58:30.334Z,66.42
2023-04-21T09:59:37.558Z,66.70
2023-04-21T10:00:40.320Z,66.62
2023-04-21T10:01:45.186Z,66.98
2023-04-21T10:02:51.140Z,67.23
2023-04-21T10:03:54.500Z,67.57
2023-04-21T10:04:57.579Z,67.81
2023-04-21T10:05:59.930Z,67.82
2023-04-21T10:07:04.867Z,67.62
2023-04-21T10:08:09.169Z,67.89
2023-04-21T10:09:12.394Z,67.93
2023-04-21T10:10:28.092Z,68.55
2023-04-21T10:11:30.319Z,68.31
2023-04-21T10:12:34.142Z,68.47
2023-04-21T10:13:37.535Z,68.72
2023-04-21T10:14:39.604Z,68.54
2023-04-21T10:15:42.029Z,67.96
2023-04-21T10:16:49.531Z,68.00
2023-04-21T10:17:51.589Z,68.03
2023-04-21T10:18:53.714Z,68.50
2023-04-21T10:19:57.134Z,68.06
2023-04-21T10:21:10.681Z,67.02
2023-04-21T10:22:13.294Z,66.66
2023-04-21T10:23:30.835Z,66.74
2023-04-21T10:24:41.943Z,66.48
2023-04-21T10:25:47.716Z,66.67
2023-04-21T10:26:54.627Z,66.60
2023-04-21T10:27:55.969Z,66.51
2023-04-21T10:29:00.125Z,66.38
2023-04-21T10:30:20.426Z,66.04
2023-04-21T10:31:25.697Z,65.93
2023-04-21T10:32:41.712Z,65.73
2023-04-21T10:34:09.012Z,65.93
2023-04-21T10:35:14.005Z,65.99
2023-04-21T10:36:19.970Z,65.72
2023-04-21T10:37:22.005Z,65.90
2023-04-21T10:38:40.199Z,65.26
2023-04-21T10:39:44.710Z,65.09
2023-04-21T10:40:47.811Z,64.61
2023-04-21T10:41:50.214Z,64.48
2023-04-21T10:42:52.072Z,64.41
2023-04-21T10:44:02.929Z,64.25
2023-04-21T10:45:08.404Z,63.93
2023-04-21T10:46:35.009Z,63.63
2023-04-21T10:47:43.341Z,63.18
2023-04-21T10:48:53.488Z,62.91
2023-04-21T10:49:57.089Z,63.10
2023-04-21T10:51:01.825Z,62.92
2023-04-21T10:52:08.180Z,62.62
2023-04-21T10:53:15.491Z,62.29
2023-04-21T10:54:19.512Z,62.57
2023-04-21T10:55:24.153Z,62.32
2023-04-21T10:56:26.143Z,62.40
2023-04-21T10:57:33.737Z,62.25
2023-04-21T10:58:37.073Z,62.04
2023-04-21T10:59:39.983Z,62.34
2023-04-21T11:00:42.912Z,61.87
2023-04-21T11:01:45.369Z,62.48
2023-04-21T11:03:05.972Z,61.79
2023-04-21T11:04:13.851Z,61.54
2023-04-21T11:05:16.366Z,61.39
2023-04-21T11:06:18.527Z,61.41
2023-04-21T11:07:24.969Z,61.52
2023-04-21T11:08:27.052Z,60.97
2023-04-21T11:09:29.662Z,60.51
2023-04-21T11:11:58.262Z,60.22
2023-04-21T11:13:00.296Z,60.16
2023-04-21T11:14:03.075Z,59.49
2023-04-21T11:15:09.276Z,59.24
2023-04-21T11:16:11.877Z,59.04
2023-04-21T11:17:16.390Z,60.06
2023-04-21T11:18:18.402Z,59.47
2023-04-21T11:19:22.034Z,59.00
2023-04-21T11:20:24.554Z,59.31
2023-04-21T11:21:28.960Z,59.30
2023-04-21T11:22:30.954Z,58.92
2023-04-21T11:23:32.936Z,58.95
2023-04-21T11:24:34.813Z,58.66
2023-04-21T11:25:36.901Z,58.92
2023-04-21T11:26:39.166Z,58.65
2023-04-21T11:27:41.043Z,58.37
2023-04-21T11:28:42.887Z,58.36
2023-04-21T11:29:45.984Z,58.45
2023-04-21T11:30:48.282Z,57.99
2023-04-21T11:31:50.857Z,57.80
2023-04-21T11:32:56.101Z,57.89
2023-04-21T11:33:59.743Z,58.00
2023-04-21T11:35:01.866Z,58.12
2023-04-21T11:36:07.369Z,58.10
2023-04-21T11:37:12.033Z,57.94
2023-04-21T11:38:14.023Z,57.75
2023-04-21T11:39:18.175Z,58.34
2023-04-21T11:40:21.142Z,58.49
2023-04-21T11:41:23.741Z,58.39
2023-04-21T11:42:27.045Z,58.19
2023-04-21T11:43:29.063Z,58.09
2023-04-21T11:44:41.962Z,58.52
2023-04-21T11:45:47.751Z,58.47
2023-04-21T11:46:50.300Z,58.46
2023-04-21T11:47:56.109Z,58.79
2023-04-21T11:49:06.886Z,58.79
2023-04-21T11:50:10.736Z,58.63
2023-04-21T11:51:19.291Z,57.90
2023-04-21T11:52:32.352Z,58.23
2023-04-21T11:53:34.494Z,58.02
2023-04-21T11:54:38.089Z,58.33
2023-04-21T11:56:56.224Z,57.87
2023-04-21T11:57:58.538Z,57.99
2023-04-21T11:59:00.644Z,58.00
2023-04-21T12:00:05.516Z,58.06
2023-04-21T12:01:08.802Z,57.65
2023-04-21T12:02:14.672Z,57.86
2023-04-21T12:03:19.323Z,57.59
2023-04-21T12:04:23.821Z,57.76
2023-04-21T12:05:34.717Z,57.88
2023-04-21T12:06:37.085Z,58.03
2023-04-21T12:07:42.419Z,58.34
2023-04-21T12:08:44.359Z,57.88
2023-04-21T12:09:50.312Z,57.80
2023-04-21T12:10:52.325Z,57.99
2023-04-21T12:11:56.186Z,57.88
2023-04-21T12:12:58.194Z,58.34
2023-04-21T12:14:01.257Z,58.65
2023-04-21T12:15:04.593Z,58.58
2023-04-21T12:16:07.096Z,58.11
2023-04-21T12:17:09.187Z,58.09
2023-04-21T12:18:15.586Z,58.58
2023-04-21T12:19:41.182Z,58.63
2023-04-21T12:20:52.035Z,58.33
2023-04-21T12:21:54.967Z,58.28
2023-04-21T12:22:57.026Z,57.87
2023-04-21T12:23:59.006Z,57.81
2023-04-21T12:25:01.075Z,57.54
2023-04-21T12:26:04.557Z,57.45
2023-04-21T12:27:08.694Z,56.86
2023-04-21T12:28:10.900Z,56.78
2023-04-21T12:29:13.007Z,56.94
2023-04-21T12:30:15.179Z,57.39
2023-04-21T12:31:19.893Z,58.41
2023-04-21T12:32:24.484Z,58.01
2023-04-21T12:33:26.726Z,57.16
2023-04-21T12:34:28.858Z,57.22
2023-04-21T12:35:30.854Z,57.11
2023-04-21T12:36:35.340Z,56.94
2023-04-21T12:37:37.087Z,56.85
2023-04-21T12:38:38.987Z,56.21
2023-04-21T12:39:42.018Z,55.96
2023-04-21T12:40:44.109Z,55.98
2023-04-21T12:41:45.989Z,55.94
2023-04-21T12:42:47.844Z,55.90
2023-04-21T12:43:49.737Z,55.28
2023-04-21T12:44:51.665Z,55.64
2023-04-21T12:45:53.595Z,56.19
2023-04-21T12:46:55.862Z,56.05
2023-04-21T12:47:57.801Z,55.90
2023-04-21T12:49:04.180Z,55.90
2023-04-21T12:50:07.931Z,55.80
2023-04-21T12:51:09.920Z,55.64
2023-04-21T12:52:11.779Z,55.47
2023-04-21T12:53:14.455Z,55.37
2023-04-21T12:54:16.557Z,55.09
2023-04-21T12:55:18.599Z,54.78
2023-04-21T12:56:20.678Z,54.92
2023-04-21T12:57:23.330Z,55.85
2023-04-21T12:58:25.230Z,56.06
2023-04-21T12:59:27.302Z,56.50
2023-04-21T13:00:29.660Z,56.51
2023-04-21T13:01:32.079Z,56.85
2023-04-21T13:02:34.104Z,56.60
2023-04-21T13:03:36.239Z,56.19
2023-04-21T13:04:38.296Z,56.16
2023-04-21T13:05:40.414Z,56.09
2023-04-21T13:06:42.610Z,56.40
2023-04-21T13:07:44.818Z,56.43
2023-04-21T13:08:47.675Z,56.00
2023-04-21T13:09:49.965Z,55.88
2023-04-21T13:10:53.376Z,55.62
2023-04-21T13:11:55.693Z,56.14
2023-04-21T13:12:57.710Z,55.59
2023-04-21T13:13:59.591Z,54.83
2023-04-21T13:15:01.947Z,54.99
2023-04-21T13:16:06.073Z,54.79
2023-04-21T13:17:10.716Z,54.68
2023-04-21T13:18:12.800Z,54.36
2023-04-21T13:19:14.687Z,54.29
2023-04-21T13:20:18.392Z,54.22
2023-04-21T13:21:20.559Z,54.56
2023-04-21T13:22:22.544Z,54.29
2023-04-21T13:23:26.276Z,54.04
2023-04-21T13:24:29.067Z,53.79
2023-04-21T13:25:31.854Z,54.00
2023-04-21T13:26:33.935Z,53.85
2023-04-21T13:27:35.991Z,53.58
2023-04-21T13:28:38.077Z,53.21
2023-04-21T13:29:40.051Z,53.07
2023-04-21T13:30:42.502Z,52.69
2023-04-21T13:31:45.051Z,53.07
2023-04-21T13:32:48.760Z,52.93
2023-04-21T13:33:52.982Z,53.39
2023-04-21T13:34:54.599Z,53.03
2023-04-21T13:35:56.507Z,53.05
2023-04-21T13:36:59.344Z,53.21
2023-04-21T13:38:02.327Z,52.97
2023-04-21T13:39:04.311Z,52.97
2023-04-21T13:40:09.227Z,52.97
2023-04-21T13:41:11.328Z,53.20
2023-04-21T13:42:13.314Z,53.25